Airfield :
LOGIN :

Register | Disclaimer

   EN    FR    IT 

 










Legend :    VFR   Marginal VFR   IFR   Intensive IFR   Very Intensive IFR
Visi :
Ceiling :
>= 8 km
>= 3000ft
5 to 8 km
1000 to 3000 ft
1500m to 5 km
500 to 1000 ft
800 to 1500m
200 to 500 ft
< 800m
< 200 ft
Symbols :   Thunderstorms  Fog  Heavy snow  Heavy precipitations  Wind > 20 kt
SIGMETs :     Misc.  Thunderstorms  Icing  Turbulence  Mountain Waves  Volcanic Ashes






- Airport Elevation : 0 ft


ENSL - Sleipner A Platform

CURRENT METAR :
  • 281020Z AUTO 14033KT //// OVC009/// 09/07 Q1007 W07/S5

EXPIRED METARs :
  • 280950Z AUTO 14033KT //// SCT006/// SCT020/// BKN027/// 08/08 Q1007 W07/S4
  • 280920Z AUTO 14032KT //// BKN005/// 09/08 Q1007 W07/S4
  • 280850Z AUTO 14022KT //// BKN005/// 09/08 Q1007 W07/S4
  • 280820Z AUTO 15023KT //// BKN004/// BKN140/// 09/09 Q1007 W07/S4
  • 280750Z AUTO 13010KT 9999NDV BKN004/// 10/09 Q1007 W07/S4
  • 280720Z AUTO 13009KT 9999NDV SCT007/// BKN140/// 09/08 Q1007 W07/S4

Expired Forecast.



MET'MAP, your aeronautical weather chart ! - Copyright ORBIFLY December 2007 - Disclaimer

ORBIFLY MET'MAP TEAM :

Programming & Development : Alexandra Zaïnal
Original concept : Baudouin d'Aumeries
Technical & hardware support : Manuel Goepfert
Assistance : Marc-Olivier Méhu




SOURCES & CREDITS :

   NOAA